sensor_id;sensor_type;location;lat;lon;timestamp;P1;durP1;ratioP1;P2;durP2;ratioP2
43086;SDS011;28708;52.224;6.924;2023-02-05T00:01:57;28.47;;;12.70;;
43086;SDS011;28708;52.224;6.924;2023-02-05T00:04:23;28.93;;;12.63;;
43086;SDS011;28708;52.224;6.924;2023-02-05T00:06:49;27.67;;;12.23;;
43086;SDS011;28708;52.224;6.924;2023-02-05T00:09:14;25.40;;;11.77;;
43086;SDS011;28708;52.224;6.924;2023-02-05T00:11:40;25.77;;;11.90;;
43086;SDS011;28708;52.224;6.924;2023-02-05T00:14:06;24.43;;;11.10;;
43086;SDS011;28708;52.224;6.924;2023-02-05T00:16:33;26.67;;;11.37;;
43086;SDS011;28708;52.224;6.924;2023-02-05T00:18:59;24.03;;;11.50;;
43086;SDS011;28708;52.224;6.924;2023-02-05T00:21:25;24.97;;;11.90;;
43086;SDS011;28708;52.224;6.924;2023-02-05T00:23:51;26.50;;;12.13;;
43086;SDS011;28708;52.224;6.924;2023-02-05T00:26:17;28.23;;;13.00;;
43086;SDS011;28708;52.224;6.924;2023-02-05T00:28:44;29.27;;;12.90;;
43086;SDS011;28708;52.224;6.924;2023-02-05T00:31:14;28.70;;;12.53;;
43086;SDS011;28708;52.224;6.924;2023-02-05T00:33:41;27.00;;;12.37;;
43086;SDS011;28708;52.224;6.924;2023-02-05T00:36:09;26.10;;;12.47;;
43086;SDS011;28708;52.224;6.924;2023-02-05T00:38:36;48.80;;;12.63;;
43086;SDS011;28708;52.224;6.924;2023-02-05T00:41:02;24.70;;;12.23;;
43086;SDS011;28708;52.224;6.924;2023-02-05T00:43:28;26.20;;;12.10;;
43086;SDS011;28708;52.224;6.924;2023-02-05T00:45:54;22.27;;;11.97;;
43086;SDS011;28708;52.224;6.924;2023-02-05T00:48:20;28.47;;;12.93;;
43086;SDS011;28708;52.224;6.924;2023-02-05T00:50:47;23.37;;;11.40;;
43086;SDS011;28708;52.224;6.924;2023-02-05T00:55:42;31.87;;;12.73;;
43086;SDS011;28708;52.224;6.924;2023-02-05T00:58:08;33.93;;;12.50;;
43086;SDS011;28708;52.224;6.924;2023-02-05T01:00:34;24.07;;;11.70;;
43086;SDS011;28708;52.224;6.924;2023-02-05T01:03:00;26.20;;;11.30;;
43086;SDS011;28708;52.224;6.924;2023-02-05T01:05:26;25.80;;;10.83;;
43086;SDS011;28708;52.224;6.924;2023-02-05T01:07:52;21.30;;;10.90;;
43086;SDS011;28708;52.224;6.924;2023-02-05T01:10:18;25.23;;;10.77;;
43086;SDS011;28708;52.224;6.924;2023-02-05T01:12:43;28.77;;;10.53;;
43086;SDS011;28708;52.224;6.924;2023-02-05T01:15:11;23.93;;;11.50;;
43086;SDS011;28708;52.224;6.924;2023-02-05T01:17:37;23.73;;;11.07;;
43086;SDS011;28708;52.224;6.924;2023-02-05T01:20:03;26.57;;;10.83;;
43086;SDS011;28708;52.224;6.924;2023-02-05T01:22:30;33.20;;;11.40;;
43086;SDS011;28708;52.224;6.924;2023-02-05T01:24:59;22.93;;;10.77;;
43086;SDS011;28708;52.224;6.924;2023-02-05T01:27:24;27.50;;;10.93;;
43086;SDS011;28708;52.224;6.924;2023-02-05T01:29:50;22.43;;;11.17;;
43086;SDS011;28708;52.224;6.924;2023-02-05T01:32:16;25.27;;;11.37;;
43086;SDS011;28708;52.224;6.924;2023-02-05T01:34:43;33.57;;;11.10;;
43086;SDS011;28708;52.224;6.924;2023-02-05T01:37:09;26.57;;;11.40;;
43086;SDS011;28708;52.224;6.924;2023-02-05T01:39:35;25.57;;;11.30;;
43086;SDS011;28708;52.224;6.924;2023-02-05T01:42:02;30.83;;;12.03;;
43086;SDS011;28708;52.224;6.924;2023-02-05T01:47:45;27.33;;;11.93;;
43086;SDS011;28708;52.224;6.924;2023-02-05T01:50:12;25.50;;;12.33;;
43086;SDS011;28708;52.224;6.924;2023-02-05T01:52:39;21.73;;;11.80;;
43086;SDS011;28708;52.224;6.924;2023-02-05T01:55:05;22.90;;;11.47;;
43086;SDS011;28708;52.224;6.924;2023-02-05T01:57:32;31.07;;;13.17;;
43086;SDS011;28708;52.224;6.924;2023-02-05T02:00:00;25.93;;;11.63;;
43086;SDS011;28708;52.224;6.924;2023-02-05T02:02:26;27.73;;;11.93;;
43086;SDS011;28708;52.224;6.924;2023-02-05T02:04:55;27.20;;;11.83;;
43086;SDS011;28708;52.224;6.924;2023-02-05T02:07:25;31.77;;;11.20;;
43086;SDS011;28708;52.224;6.924;2023-02-05T02:09:51;26.63;;;12.53;;
43086;SDS011;28708;52.224;6.924;2023-02-05T02:12:19;29.20;;;11.13;;
43086;SDS011;28708;52.224;6.924;2023-02-05T02:14:49;30.70;;;12.07;;
43086;SDS011;28708;52.224;6.924;2023-02-05T02:17:18;28.42;;;11.15;;
43086;SDS011;28708;52.224;6.924;2023-02-05T02:27:46;29.80;;;11.70;;
43086;SDS011;28708;52.224;6.924;2023-02-05T02:35:26;29.70;;;10.83;;
43086;SDS011;28708;52.224;6.924;2023-02-05T02:38:20;34.47;;;11.53;;
43086;SDS011;28708;52.224;6.924;2023-02-05T02:40:53;38.73;;;13.97;;
43086;SDS011;28708;52.224;6.924;2023-02-05T02:43:27;36.53;;;11.27;;
43086;SDS011;28708;52.224;6.924;2023-02-05T02:46:02;41.77;;;13.50;;
43086;SDS011;28708;52.224;6.924;2023-02-05T02:48:30;39.60;;;12.57;;
43086;SDS011;28708;52.224;6.924;2023-02-05T02:50:59;30.67;;;12.57;;
43086;SDS011;28708;52.224;6.924;2023-02-05T02:53:32;37.23;;;13.43;;
43086;SDS011;28708;52.224;6.924;2023-02-05T02:56:01;39.93;;;13.43;;
43086;SDS011;28708;52.224;6.924;2023-02-05T02:58:43;37.87;;;13.53;;
43086;SDS011;28708;52.224;6.924;2023-02-05T03:01:13;39.95;;;14.73;;
43086;SDS011;28708;52.224;6.924;2023-02-05T03:03:45;42.20;;;12.40;;
43086;SDS011;28708;52.224;6.924;2023-02-05T03:06:16;35.83;;;12.70;;
43086;SDS011;28708;52.224;6.924;2023-02-05T03:11:11;35.87;;;12.23;;
43086;SDS011;28708;52.224;6.924;2023-02-05T03:13:40;38.43;;;13.50;;
43086;SDS011;28708;52.224;6.924;2023-02-05T03:16:08;36.47;;;12.20;;
43086;SDS011;28708;52.224;6.924;2023-02-05T03:18:34;40.60;;;13.87;;
43086;SDS011;28708;52.224;6.924;2023-02-05T03:21:08;36.40;;;13.60;;
43086;SDS011;28708;52.224;6.924;2023-02-05T03:23:37;42.23;;;13.97;;
43086;SDS011;28708;52.224;6.924;2023-02-05T03:26:03;34.03;;;12.97;;
43086;SDS011;28708;52.224;6.924;2023-02-05T03:28:38;39.27;;;12.90;;
43086;SDS011;28708;52.224;6.924;2023-02-05T03:31:12;44.07;;;14.37;;
43086;SDS011;28708;52.224;6.924;2023-02-05T03:34:19;40.73;;;14.13;;
43086;SDS011;28708;52.224;6.924;2023-02-05T03:37:15;40.97;;;14.65;;
43086;SDS011;28708;52.224;6.924;2023-02-05T03:40:23;43.23;;;14.50;;
43086;SDS011;28708;52.224;6.924;2023-02-05T03:43:04;43.40;;;14.43;;
43086;SDS011;28708;52.224;6.924;2023-02-05T03:48:36;40.80;;;14.13;;
43086;SDS011;28708;52.224;6.924;2023-02-05T03:57:09;39.07;;;16.07;;
43086;SDS011;28708;52.224;6.924;2023-02-05T03:59:38;52.47;;;17.33;;
43086;SDS011;28708;52.224;6.924;2023-02-05T04:02:05;46.60;;;16.83;;
43086;SDS011;28708;52.224;6.924;2023-02-05T04:04:36;49.40;;;18.40;;
43086;SDS011;28708;52.224;6.924;2023-02-05T04:07:04;44.90;;;16.83;;
43086;SDS011;28708;52.224;6.924;2023-02-05T04:09:31;45.87;;;17.90;;
43086;SDS011;28708;52.224;6.924;2023-02-05T04:11:56;48.17;;;18.80;;
43086;SDS011;28708;52.224;6.924;2023-02-05T04:14:22;50.07;;;19.93;;
43086;SDS011;28708;52.224;6.924;2023-02-05T04:16:49;49.77;;;20.87;;
43086;SDS011;28708;52.224;6.924;2023-02-05T04:19:16;53.63;;;20.13;;
43086;SDS011;28708;52.224;6.924;2023-02-05T04:21:41;55.23;;;21.40;;
43086;SDS011;28708;52.224;6.924;2023-02-05T04:24:07;52.70;;;21.03;;
43086;SDS011;28708;52.224;6.924;2023-02-05T04:26:33;63.43;;;20.60;;
43086;SDS011;28708;52.224;6.924;2023-02-05T04:29:02;58.30;;;20.48;;
43086;SDS011;28708;52.224;6.924;2023-02-05T04:31:31;58.30;;;20.83;;
43086;SDS011;28708;52.224;6.924;2023-02-05T04:33:57;52.93;;;21.53;;
43086;SDS011;28708;52.224;6.924;2023-02-05T04:36:23;55.83;;;20.10;;
43086;SDS011;28708;52.224;6.924;2023-02-05T04:38:49;55.73;;;22.47;;
43086;SDS011;28708;52.224;6.924;2023-02-05T04:41:14;57.67;;;22.37;;
43086;SDS011;28708;52.224;6.924;2023-02-05T04:43:40;73.50;;;24.50;;
43086;SDS011;28708;52.224;6.924;2023-02-05T04:46:06;60.90;;;24.87;;
43086;SDS011;28708;52.224;6.924;2023-02-05T04:48:33;74.43;;;26.33;;
43086;SDS011;28708;52.224;6.924;2023-02-05T04:50:59;64.30;;;24.93;;
43086;SDS011;28708;52.224;6.924;2023-02-05T04:53:33;63.07;;;26.40;;
43086;SDS011;28708;52.224;6.924;2023-02-05T04:56:06;66.10;;;27.57;;
43086;SDS011;28708;52.224;6.924;2023-02-05T04:58:37;78.60;;;27.60;;
43086;SDS011;28708;52.224;6.924;2023-02-05T05:01:04;67.63;;;25.67;;
43086;SDS011;28708;52.224;6.924;2023-02-05T05:03:35;64.80;;;27.60;;
43086;SDS011;28708;52.224;6.924;2023-02-05T05:06:03;72.00;;;27.63;;
43086;SDS011;28708;52.224;6.924;2023-02-05T05:08:29;73.07;;;29.70;;
43086;SDS011;28708;52.224;6.924;2023-02-05T05:10:55;65.63;;;28.53;;
43086;SDS011;28708;52.224;6.924;2023-02-05T05:13:20;80.27;;;31.77;;
43086;SDS011;28708;52.224;6.924;2023-02-05T05:15:55;69.67;;;28.83;;
43086;SDS011;28708;52.224;6.924;2023-02-05T05:18:21;79.07;;;30.13;;
43086;SDS011;28708;52.224;6.924;2023-02-05T05:20:47;72.30;;;30.07;;
43086;SDS011;28708;52.224;6.924;2023-02-05T05:23:12;68.10;;;31.50;;
43086;SDS011;28708;52.224;6.924;2023-02-05T05:25:41;59.47;;;27.13;;
43086;SDS011;28708;52.224;6.924;2023-02-05T05:28:08;70.15;;;29.23;;
43086;SDS011;28708;52.224;6.924;2023-02-05T05:30:36;67.80;;;30.07;;
43086;SDS011;28708;52.224;6.924;2023-02-05T05:33:02;78.00;;;31.67;;
43086;SDS011;28708;52.224;6.924;2023-02-05T05:35:28;85.37;;;34.50;;
43086;SDS011;28708;52.224;6.924;2023-02-05T05:37:55;81.70;;;34.17;;
43086;SDS011;28708;52.224;6.924;2023-02-05T05:40:21;82.67;;;32.40;;
43086;SDS011;28708;52.224;6.924;2023-02-05T05:43:07;79.20;;;33.70;;
43086;SDS011;28708;52.224;6.924;2023-02-05T05:45:55;83.80;;;34.78;;
43086;SDS011;28708;52.224;6.924;2023-02-05T05:48:21;85.37;;;34.83;;
43086;SDS011;28708;52.224;6.924;2023-02-05T05:50:46;90.50;;;36.47;;
43086;SDS011;28708;52.224;6.924;2023-02-05T05:53:12;84.10;;;36.27;;
43086;SDS011;28708;52.224;6.924;2023-02-05T05:55:38;70.93;;;33.67;;
43086;SDS011;28708;52.224;6.924;2023-02-05T05:58:04;72.03;;;32.13;;
43086;SDS011;28708;52.224;6.924;2023-02-05T06:00:30;80.70;;;34.87;;
43086;SDS011;28708;52.224;6.924;2023-02-05T06:02:55;73.33;;;32.07;;
43086;SDS011;28708;52.224;6.924;2023-02-05T06:05:21;74.20;;;33.77;;
43086;SDS011;28708;52.224;6.924;2023-02-05T06:07:47;79.10;;;33.73;;
43086;SDS011;28708;52.224;6.924;2023-02-05T06:10:12;75.73;;;33.33;;
43086;SDS011;28708;52.224;6.924;2023-02-05T06:12:38;78.73;;;34.50;;
43086;SDS011;28708;52.224;6.924;2023-02-05T06:15:04;64.90;;;31.53;;
43086;SDS011;28708;52.224;6.924;2023-02-05T06:17:30;70.87;;;33.40;;
43086;SDS011;28708;52.224;6.924;2023-02-05T06:19:56;71.73;;;32.40;;
43086;SDS011;28708;52.224;6.924;2023-02-05T06:22:21;65.37;;;30.37;;
43086;SDS011;28708;52.224;6.924;2023-02-05T06:24:47;67.10;;;31.27;;
43086;SDS011;28708;52.224;6.924;2023-02-05T06:27:13;68.77;;;31.60;;
43086;SDS011;28708;52.224;6.924;2023-02-05T06:29:38;66.07;;;30.57;;
43086;SDS011;28708;52.224;6.924;2023-02-05T06:32:04;60.53;;;30.63;;
43086;SDS011;28708;52.224;6.924;2023-02-05T06:34:30;61.17;;;31.20;;
43086;SDS011;28708;52.224;6.924;2023-02-05T06:36:55;51.67;;;28.67;;
43086;SDS011;28708;52.224;6.924;2023-02-05T06:39:21;49.67;;;26.13;;
43086;SDS011;28708;52.224;6.924;2023-02-05T06:41:47;48.90;;;24.43;;
43086;SDS011;28708;52.224;6.924;2023-02-05T06:44:12;49.27;;;25.17;;
43086;SDS011;28708;52.224;6.924;2023-02-05T06:46:38;46.70;;;24.20;;
43086;SDS011;28708;52.224;6.924;2023-02-05T06:49:04;50.40;;;25.03;;
43086;SDS011;28708;52.224;6.924;2023-02-05T06:51:29;46.53;;;24.00;;
43086;SDS011;28708;52.224;6.924;2023-02-05T06:53:55;45.03;;;24.50;;
43086;SDS011;28708;52.224;6.924;2023-02-05T06:56:22;45.50;;;23.43;;
43086;SDS011;28708;52.224;6.924;2023-02-05T06:58:48;45.00;;;23.77;;
43086;SDS011;28708;52.224;6.924;2023-02-05T07:01:14;43.27;;;23.27;;
43086;SDS011;28708;52.224;6.924;2023-02-05T07:03:39;47.93;;;22.93;;
43086;SDS011;28708;52.224;6.924;2023-02-05T07:06:05;42.70;;;21.67;;
43086;SDS011;28708;52.224;6.924;2023-02-05T07:08:31;47.47;;;22.43;;
43086;SDS011;28708;52.224;6.924;2023-02-05T07:10:57;40.10;;;21.47;;
43086;SDS011;28708;52.224;6.924;2023-02-05T07:13:23;45.13;;;21.93;;
43086;SDS011;28708;52.224;6.924;2023-02-05T07:15:49;41.23;;;21.43;;
43086;SDS011;28708;52.224;6.924;2023-02-05T07:18:15;39.13;;;21.23;;
43086;SDS011;28708;52.224;6.924;2023-02-05T07:20:41;39.20;;;19.90;;
43086;SDS011;28708;52.224;6.924;2023-02-05T07:23:06;37.07;;;18.83;;
43086;SDS011;28708;52.224;6.924;2023-02-05T07:25:33;36.60;;;18.40;;
43086;SDS011;28708;52.224;6.924;2023-02-05T07:28:03;42.03;;;20.50;;
43086;SDS011;28708;52.224;6.924;2023-02-05T07:30:29;22.73;;;13.43;;
43086;SDS011;28708;52.224;6.924;2023-02-05T07:32:55;22.23;;;10.20;;
43086;SDS011;28708;52.224;6.924;2023-02-05T07:35:21;17.63;;;7.90;;
43086;SDS011;28708;52.224;6.924;2023-02-05T07:37:46;16.83;;;8.87;;
43086;SDS011;28708;52.224;6.924;2023-02-05T07:40:12;18.80;;;8.83;;
43086;SDS011;28708;52.224;6.924;2023-02-05T07:42:38;23.00;;;9.63;;
43086;SDS011;28708;52.224;6.924;2023-02-05T07:45:06;18.17;;;8.27;;
43086;SDS011;28708;52.224;6.924;2023-02-05T07:47:32;11.07;;;5.70;;
43086;SDS011;28708;52.224;6.924;2023-02-05T07:49:57;13.63;;;5.13;;
43086;SDS011;28708;52.224;6.924;2023-02-05T07:52:23;15.70;;;3.63;;
43086;SDS011;28708;52.224;6.924;2023-02-05T07:54:49;8.87;;;2.80;;
43086;SDS011;28708;52.224;6.924;2023-02-05T07:57:14;13.03;;;2.27;;
43086;SDS011;28708;52.224;6.924;2023-02-05T07:59:40;17.60;;;2.43;;
43086;SDS011;28708;52.224;6.924;2023-02-05T08:02:06;9.20;;;1.70;;
43086;SDS011;28708;52.224;6.924;2023-02-05T08:04:31;10.40;;;2.10;;
43086;SDS011;28708;52.224;6.924;2023-02-05T08:06:57;10.17;;;1.77;;
43086;SDS011;28708;52.224;6.924;2023-02-05T08:09:22;9.80;;;1.80;;
43086;SDS011;28708;52.224;6.924;2023-02-05T08:11:48;10.23;;;1.67;;
43086;SDS011;28708;52.224;6.924;2023-02-05T08:14:14;9.80;;;1.73;;
43086;SDS011;28708;52.224;6.924;2023-02-05T08:16:39;10.77;;;1.63;;
43086;SDS011;28708;52.224;6.924;2023-02-05T08:19:05;8.07;;;1.40;;
43086;SDS011;28708;52.224;6.924;2023-02-05T08:21:31;14.63;;;2.30;;
43086;SDS011;28708;52.224;6.924;2023-02-05T08:23:56;13.70;;;1.60;;
43086;SDS011;28708;52.224;6.924;2023-02-05T08:26:22;10.47;;;2.03;;
43086;SDS011;28708;52.224;6.924;2023-02-05T08:28:48;8.27;;;1.40;;
43086;SDS011;28708;52.224;6.924;2023-02-05T08:31:15;13.37;;;1.70;;
43086;SDS011;28708;52.224;6.924;2023-02-05T08:33:42;13.17;;;1.53;;
43086;SDS011;28708;52.224;6.924;2023-02-05T08:36:10;11.90;;;2.73;;
43086;SDS011;28708;52.224;6.924;2023-02-05T08:38:36;7.23;;;1.33;;
43086;SDS011;28708;52.224;6.924;2023-02-05T08:41:05;9.60;;;1.97;;
43086;SDS011;28708;52.224;6.924;2023-02-05T08:43:38;12.23;;;2.47;;
43086;SDS011;28708;52.224;6.924;2023-02-05T08:46:14;7.33;;;1.30;;
43086;SDS011;28708;52.224;6.924;2023-02-05T08:48:43;8.27;;;1.73;;
43086;SDS011;28708;52.224;6.924;2023-02-05T08:51:10;12.27;;;1.77;;
43086;SDS011;28708;52.224;6.924;2023-02-05T08:53:37;12.47;;;3.57;;
43086;SDS011;28708;52.224;6.924;2023-02-05T08:56:04;10.13;;;1.70;;
43086;SDS011;28708;52.224;6.924;2023-02-05T08:58:31;14.13;;;2.17;;
43086;SDS011;28708;52.224;6.924;2023-02-05T09:01:00;11.00;;;2.30;;
43086;SDS011;28708;52.224;6.924;2023-02-05T09:03:27;13.10;;;1.83;;
43086;SDS011;28708;52.224;6.924;2023-02-05T09:05:54;13.30;;;1.83;;
43086;SDS011;28708;52.224;6.924;2023-02-05T09:08:21;12.00;;;2.10;;
43086;SDS011;28708;52.224;6.924;2023-02-05T09:10:47;13.93;;;2.20;;
43086;SDS011;28708;52.224;6.924;2023-02-05T09:13:13;13.73;;;1.57;;
43086;SDS011;28708;52.224;6.924;2023-02-05T09:15:39;12.83;;;1.90;;
43086;SDS011;28708;52.224;6.924;2023-02-05T09:18:09;14.07;;;3.17;;
43086;SDS011;28708;52.224;6.924;2023-02-05T09:20:38;11.80;;;2.00;;
43086;SDS011;28708;52.224;6.924;2023-02-05T09:23:06;10.57;;;1.87;;
43086;SDS011;28708;52.224;6.924;2023-02-05T09:25:33;13.13;;;1.77;;
43086;SDS011;28708;52.224;6.924;2023-02-05T09:28:00;11.47;;;1.40;;
43086;SDS011;28708;52.224;6.924;2023-02-05T09:30:26;11.73;;;1.73;;
43086;SDS011;28708;52.224;6.924;2023-02-05T09:32:52;17.87;;;2.93;;
43086;SDS011;28708;52.224;6.924;2023-02-05T09:35:17;15.33;;;2.20;;
43086;SDS011;28708;52.224;6.924;2023-02-05T09:37:43;9.47;;;1.60;;
43086;SDS011;28708;52.224;6.924;2023-02-05T09:40:11;12.10;;;1.43;;
43086;SDS011;28708;52.224;6.924;2023-02-05T09:42:59;15.30;;;1.87;;
43086;SDS011;28708;52.224;6.924;2023-02-05T09:48:19;8.13;;;1.30;;
43086;SDS011;28708;52.224;6.924;2023-02-05T09:51:13;15.60;;;6.10;;
43086;SDS011;28708;52.224;6.924;2023-02-05T09:53:55;25.97;;;6.27;;
43086;SDS011;28708;52.224;6.924;2023-02-05T09:56:24;28.13;;;7.72;;
43086;SDS011;28708;52.224;6.924;2023-02-05T09:58:52;32.87;;;9.50;;
43086;SDS011;28708;52.224;6.924;2023-02-05T10:01:27;15.67;;;4.40;;
43086;SDS011;28708;52.224;6.924;2023-02-05T10:04:00;7.90;;;1.80;;
43086;SDS011;28708;52.224;6.924;2023-02-05T10:11:58;10.30;;;1.90;;
43086;SDS011;28708;52.224;6.924;2023-02-05T10:14:51;9.73;;;1.30;;
43086;SDS011;28708;52.224;6.924;2023-02-05T10:25:40;15.70;;;1.77;;
43086;SDS011;28708;52.224;6.924;2023-02-05T10:28:31;13.93;;;1.90;;
43086;SDS011;28708;52.224;6.924;2023-02-05T10:31:36;17.13;;;2.10;;
43086;SDS011;28708;52.224;6.924;2023-02-05T10:36:58;10.90;;;1.73;;
43086;SDS011;28708;52.224;6.924;2023-02-05T10:39:28;14.43;;;2.83;;
43086;SDS011;28708;52.224;6.924;2023-02-05T10:41:58;10.73;;;2.00;;
43086;SDS011;28708;52.224;6.924;2023-02-05T10:44:39;8.87;;;2.00;;
43086;SDS011;28708;52.224;6.924;2023-02-05T10:47:13;8.60;;;1.70;;
43086;SDS011;28708;52.224;6.924;2023-02-05T10:50:04;13.53;;;2.23;;
43086;SDS011;28708;52.224;6.924;2023-02-05T10:52:39;7.50;;;1.87;;
43086;SDS011;28708;52.224;6.924;2023-02-05T10:55:05;16.53;;;2.10;;
43086;SDS011;28708;52.224;6.924;2023-02-05T10:57:37;13.97;;;1.80;;
43086;SDS011;28708;52.224;6.924;2023-02-05T11:00:04;11.80;;;1.90;;
43086;SDS011;28708;52.224;6.924;2023-02-05T11:02:43;10.33;;;1.87;;
43086;SDS011;28708;52.224;6.924;2023-02-05T11:05:20;11.50;;;1.70;;
43086;SDS011;28708;52.224;6.924;2023-02-05T11:07:59;12.83;;;1.67;;
43086;SDS011;28708;52.224;6.924;2023-02-05T11:10:26;12.03;;;1.87;;
43086;SDS011;28708;52.224;6.924;2023-02-05T11:12:55;13.87;;;1.90;;
43086;SDS011;28708;52.224;6.924;2023-02-05T11:15:54;14.80;;;1.83;;
43086;SDS011;28708;52.224;6.924;2023-02-05T11:18:42;13.40;;;2.47;;
43086;SDS011;28708;52.224;6.924;2023-02-05T11:21:10;10.80;;;1.73;;
43086;SDS011;28708;52.224;6.924;2023-02-05T11:23:36;15.17;;;2.53;;
43086;SDS011;28708;52.224;6.924;2023-02-05T11:28:41;13.37;;;2.10;;
43086;SDS011;28708;52.224;6.924;2023-02-05T11:31:27;13.87;;;2.10;;
43086;SDS011;28708;52.224;6.924;2023-02-05T11:34:08;10.67;;;2.13;;
43086;SDS011;28708;52.224;6.924;2023-02-05T11:36:36;13.15;;;1.55;;
43086;SDS011;28708;52.224;6.924;2023-02-05T11:39:13;12.57;;;2.00;;
43086;SDS011;28708;52.224;6.924;2023-02-05T11:41:53;14.80;;;2.40;;
43086;SDS011;28708;52.224;6.924;2023-02-05T11:46:51;15.10;;;2.03;;
43086;SDS011;28708;52.224;6.924;2023-02-05T11:49:21;15.18;;;2.05;;
43086;SDS011;28708;52.224;6.924;2023-02-05T11:51:55;18.37;;;2.43;;
43086;SDS011;28708;52.224;6.924;2023-02-05T11:54:22;15.10;;;2.30;;
43086;SDS011;28708;52.224;6.924;2023-02-05T11:59:53;15.40;;;2.50;;
43086;SDS011;28708;52.224;6.924;2023-02-05T12:07:35;19.43;;;2.73;;
43086;SDS011;28708;52.224;6.924;2023-02-05T12:10:02;26.43;;;2.90;;
43086;SDS011;28708;52.224;6.924;2023-02-05T12:12:37;16.67;;;2.63;;
43086;SDS011;28708;52.224;6.924;2023-02-05T12:24:38;17.30;;;2.80;;
43086;SDS011;28708;52.224;6.924;2023-02-05T12:29:59;21.40;;;2.47;;
43086;SDS011;28708;52.224;6.924;2023-02-05T12:32:49;17.17;;;2.40;;
43086;SDS011;28708;52.224;6.924;2023-02-05T12:36:12;19.42;;;3.65;;
43086;SDS011;28708;52.224;6.924;2023-02-05T12:38:20;23.07;;;3.30;;
43086;SDS011;28708;52.224;6.924;2023-02-05T12:53:21;17.67;;;2.27;;
43086;SDS011;28708;52.224;6.924;2023-02-05T12:55:39;20.77;;;2.70;;
43086;SDS011;28708;52.224;6.924;2023-02-05T12:58:35;20.57;;;3.07;;
43086;SDS011;28708;52.224;6.924;2023-02-05T13:01:07;21.77;;;3.00;;
43086;SDS011;28708;52.224;6.924;2023-02-05T13:03:47;24.63;;;3.10;;
43086;SDS011;28708;52.224;6.924;2023-02-05T13:06:21;24.17;;;3.40;;
43086;SDS011;28708;52.224;6.924;2023-02-05T13:09:00;21.77;;;3.00;;
43086;SDS011;28708;52.224;6.924;2023-02-05T13:16:54;21.37;;;3.20;;
43086;SDS011;28708;52.224;6.924;2023-02-05T13:19:32;31.60;;;3.87;;
43086;SDS011;28708;52.224;6.924;2023-02-05T13:22:17;24.43;;;3.97;;
43086;SDS011;28708;52.224;6.924;2023-02-05T13:25:27;26.40;;;3.07;;
43086;SDS011;28708;52.224;6.924;2023-02-05T13:28:34;22.13;;;3.42;;
43086;SDS011;28708;52.224;6.924;2023-02-05T13:33:39;33.67;;;4.23;;
43086;SDS011;28708;52.224;6.924;2023-02-05T13:41:26;30.97;;;4.67;;
43086;SDS011;28708;52.224;6.924;2023-02-05T13:44:30;28.33;;;4.20;;
43086;SDS011;28708;52.224;6.924;2023-02-05T13:52:59;25.30;;;4.40;;
43086;SDS011;28708;52.224;6.924;2023-02-05T13:58:14;30.80;;;5.07;;
43086;SDS011;28708;52.224;6.924;2023-02-05T14:00:48;36.67;;;4.90;;
43086;SDS011;28708;52.224;6.924;2023-02-05T14:03:36;25.17;;;4.33;;
43086;SDS011;28708;52.224;6.924;2023-02-05T14:06:37;35.97;;;7.50;;
43086;SDS011;28708;52.224;6.924;2023-02-05T14:09:03;27.40;;;4.40;;
43086;SDS011;28708;52.224;6.924;2023-02-05T14:11:57;30.53;;;4.77;;
43086;SDS011;28708;52.224;6.924;2023-02-05T14:14:34;23.40;;;4.03;;
43086;SDS011;28708;52.224;6.924;2023-02-05T14:19:52;30.07;;;6.10;;
43086;SDS011;28708;52.224;6.924;2023-02-05T14:22:43;35.23;;;4.93;;
43086;SDS011;28708;52.224;6.924;2023-02-05T14:31:43;40.00;;;6.00;;
43086;SDS011;28708;52.224;6.924;2023-02-05T14:34:06;27.23;;;4.27;;
43086;SDS011;28708;52.224;6.924;2023-02-05T14:36:51;44.23;;;4.63;;
43086;SDS011;28708;52.224;6.924;2023-02-05T14:39:20;30.47;;;5.13;;
43086;SDS011;28708;52.224;6.924;2023-02-05T14:41:52;26.27;;;4.90;;
43086;SDS011;28708;52.224;6.924;2023-02-05T14:44:24;34.73;;;5.00;;
43086;SDS011;28708;52.224;6.924;2023-02-05T14:47:16;32.90;;;4.73;;
43086;SDS011;28708;52.224;6.924;2023-02-05T14:49:43;30.00;;;4.43;;
43086;SDS011;28708;52.224;6.924;2023-02-05T14:54:47;30.07;;;4.30;;
43086;SDS011;28708;52.224;6.924;2023-02-05T14:57:28;44.53;;;5.37;;
43086;SDS011;28708;52.224;6.924;2023-02-05T14:59:59;29.87;;;5.00;;
43086;SDS011;28708;52.224;6.924;2023-02-05T15:05:36;27.80;;;3.85;;
43086;SDS011;28708;52.224;6.924;2023-02-05T15:16:46;36.07;;;6.57;;
43086;SDS011;28708;52.224;6.924;2023-02-05T15:19:12;32.73;;;5.63;;
43086;SDS011;28708;52.224;6.924;2023-02-05T15:21:42;38.47;;;5.38;;
43086;SDS011;28708;52.224;6.924;2023-02-05T15:24:14;31.77;;;5.83;;
43086;SDS011;28708;52.224;6.924;2023-02-05T15:29:21;24.60;;;5.33;;
43086;SDS011;28708;52.224;6.924;2023-02-05T15:31:51;38.33;;;5.83;;
43086;SDS011;28708;52.224;6.924;2023-02-05T15:34:31;36.47;;;6.80;;
43086;SDS011;28708;52.224;6.924;2023-02-05T15:37:20;31.43;;;4.60;;
43086;SDS011;28708;52.224;6.924;2023-02-05T15:40:10;35.57;;;7.03;;
43086;SDS011;28708;52.224;6.924;2023-02-05T15:48:05;31.00;;;5.73;;
43086;SDS011;28708;52.224;6.924;2023-02-05T15:50:46;38.23;;;5.60;;
43086;SDS011;28708;52.224;6.924;2023-02-05T15:58:50;29.57;;;4.67;;
43086;SDS011;28708;52.224;6.924;2023-02-05T16:01:36;30.67;;;5.43;;
43086;SDS011;28708;52.224;6.924;2023-02-05T16:04:17;27.93;;;5.10;;
43086;SDS011;28708;52.224;6.924;2023-02-05T16:06:56;30.83;;;4.67;;
43086;SDS011;28708;52.224;6.924;2023-02-05T16:09:24;28.80;;;4.57;;
43086;SDS011;28708;52.224;6.924;2023-02-05T16:11:52;27.63;;;5.10;;
43086;SDS011;28708;52.224;6.924;2023-02-05T16:14:22;28.27;;;5.27;;
43086;SDS011;28708;52.224;6.924;2023-02-05T16:19:56;32.30;;;5.40;;
43086;SDS011;28708;52.224;6.924;2023-02-05T16:22:34;35.13;;;5.03;;
43086;SDS011;28708;52.224;6.924;2023-02-05T16:25:26;31.77;;;4.73;;
43086;SDS011;28708;52.224;6.924;2023-02-05T16:27:51;37.70;;;4.97;;
43086;SDS011;28708;52.224;6.924;2023-02-05T16:30:33;36.03;;;6.40;;
43086;SDS011;28708;52.224;6.924;2023-02-05T16:33:07;25.93;;;5.53;;
43086;SDS011;28708;52.224;6.924;2023-02-05T16:35:50;36.33;;;6.10;;
43086;SDS011;28708;52.224;6.924;2023-02-05T16:38:20;34.90;;;5.67;;
43086;SDS011;28708;52.224;6.924;2023-02-05T16:40:54;34.57;;;5.20;;
43086;SDS011;28708;52.224;6.924;2023-02-05T16:48:30;39.20;;;6.33;;
43086;SDS011;28708;52.224;6.924;2023-02-05T16:50:56;49.90;;;7.40;;
43086;SDS011;28708;52.224;6.924;2023-02-05T16:53:25;35.20;;;6.20;;
43086;SDS011;28708;52.224;6.924;2023-02-05T16:56:16;36.57;;;6.60;;
43086;SDS011;28708;52.224;6.924;2023-02-05T16:58:45;36.20;;;5.83;;
43086;SDS011;28708;52.224;6.924;2023-02-05T17:01:13;37.03;;;5.88;;
43086;SDS011;28708;52.224;6.924;2023-02-05T17:03:54;39.90;;;5.80;;
43086;SDS011;28708;52.224;6.924;2023-02-05T17:06:21;39.23;;;6.57;;
43086;SDS011;28708;52.224;6.924;2023-02-05T17:08:50;36.77;;;5.93;;
43086;SDS011;28708;52.224;6.924;2023-02-05T17:11:35;41.50;;;5.97;;
43086;SDS011;28708;52.224;6.924;2023-02-05T17:16:38;39.87;;;5.83;;
43086;SDS011;28708;52.224;6.924;2023-02-05T17:19:08;34.97;;;6.50;;
43086;SDS011;28708;52.224;6.924;2023-02-05T17:21:48;35.60;;;5.70;;
43086;SDS011;28708;52.224;6.924;2023-02-05T17:24:39;37.70;;;6.50;;
43086;SDS011;28708;52.224;6.924;2023-02-05T17:27:16;41.60;;;7.93;;
43086;SDS011;28708;52.224;6.924;2023-02-05T17:29:47;44.43;;;6.53;;